createdAt,value
2022-09-21T00:00:47.699Z,13.70
2022-09-21T00:03:15.751Z,14.20
2022-09-21T00:05:43.302Z,14.20
2022-09-21T00:08:11.740Z,14.20
2022-09-21T00:10:39.721Z,14.20
2022-09-21T00:13:08.349Z,14.20
2022-09-21T00:15:35.762Z,14.20
2022-09-21T00:18:03.886Z,14.20
2022-09-21T00:20:31.252Z,14.20
2022-09-21T00:22:58.638Z,14.20
2022-09-21T00:25:26.091Z,14.20
2022-09-21T00:27:54.249Z,14.20
2022-09-21T00:30:22.119Z,14.10
2022-09-21T00:32:49.440Z,14.10
2022-09-21T00:35:16.864Z,14.10
2022-09-21T00:37:44.753Z,14.10
2022-09-21T00:40:15.254Z,14.10
2022-09-21T00:42:42.844Z,14.10
2022-09-21T00:45:21.013Z,14.00
2022-09-21T00:47:50.314Z,14.10
2022-09-21T00:50:20.213Z,14.10
2022-09-21T00:52:49.602Z,14.00
2022-09-21T00:55:20.235Z,14.00
2022-09-21T00:57:49.194Z,14.00
2022-09-21T01:00:17.097Z,14.00
2022-09-21T01:02:45.816Z,14.00
2022-09-21T01:05:13.832Z,14.00
2022-09-21T01:07:47.157Z,14.00
2022-09-21T01:10:18.553Z,13.90
2022-09-21T01:13:05.789Z,14.00
2022-09-21T01:15:52.106Z,13.90
2022-09-21T01:18:19.501Z,13.90
2022-09-21T01:20:55.270Z,13.90
2022-09-21T01:23:31.618Z,13.90
2022-09-21T01:26:02.941Z,13.90
2022-09-21T01:28:34.165Z,13.90
2022-09-21T01:31:06.084Z,13.80
2022-09-21T01:33:36.293Z,13.80
2022-09-21T01:36:07.838Z,13.80
2022-09-21T01:38:44.659Z,13.80
2022-09-21T01:41:14.210Z,13.80
2022-09-21T01:43:43.795Z,13.80
2022-09-21T01:46:13.589Z,13.80
2022-09-21T01:48:44.183Z,13.80
2022-09-21T01:51:13.895Z,13.70
2022-09-21T01:53:43.620Z,13.70
2022-09-21T01:56:13.498Z,13.70
2022-09-21T01:58:47.841Z,13.70
2022-09-21T02:01:17.028Z,13.60
2022-09-21T02:03:47.312Z,13.60
2022-09-21T02:06:15.552Z,13.50
2022-09-21T02:08:43.592Z,13.40
2022-09-21T02:11:13.409Z,13.30
2022-09-21T02:13:44.916Z,13.30
2022-09-21T02:16:12.382Z,13.20
2022-09-21T02:18:48.773Z,13.00
2022-09-21T02:21:25.548Z,13.00
2022-09-21T02:23:55.960Z,12.90
2022-09-21T02:26:30.248Z,12.80
2022-09-21T02:29:12.460Z,12.70
2022-09-21T02:31:51.609Z,12.60
2022-09-21T02:34:25.545Z,12.50
2022-09-21T02:37:01.290Z,12.20
2022-09-21T02:39:31.806Z,12.50
2022-09-21T02:42:03.112Z,12.50
2022-09-21T02:44:35.473Z,12.50
2022-09-21T02:47:23.011Z,12.50
2022-09-21T02:49:54.791Z,12.50
2022-09-21T02:52:22.408Z,12.50
2022-09-21T02:54:52.108Z,12.50
2022-09-21T02:57:21.861Z,12.50
2022-09-21T02:59:50.138Z,12.50
2022-09-21T03:02:17.790Z,12.50
2022-09-21T03:04:47.730Z,12.50
2022-09-21T03:07:15.752Z,12.50
2022-09-21T03:09:43.072Z,12.50
2022-09-21T03:12:10.474Z,12.60
2022-09-21T03:14:37.857Z,12.50
2022-09-21T03:17:05.192Z,12.50
2022-09-21T03:19:32.508Z,12.50
2022-09-21T03:22:00.172Z,12.60
2022-09-21T03:24:48.000Z,12.60
2022-09-21T03:27:19.408Z,12.60
2022-09-21T03:29:47.071Z,12.60
2022-09-21T03:32:14.518Z,12.60
2022-09-21T03:34:41.891Z,12.70
2022-09-21T03:37:09.882Z,12.70
2022-09-21T03:39:37.277Z,12.70
2022-09-21T03:42:04.574Z,12.70
2022-09-21T03:44:31.969Z,12.70
2022-09-21T03:46:59.260Z,12.70
2022-09-21T03:49:26.765Z,12.70
2022-09-21T03:51:54.633Z,12.70
2022-09-21T03:54:21.937Z,12.70
2022-09-21T03:56:49.186Z,12.60
2022-09-21T03:59:16.796Z,12.50
2022-09-21T04:01:44.315Z,12.50
2022-09-21T04:04:11.715Z,12.40
2022-09-21T04:06:39.015Z,12.40
2022-09-21T04:09:06.499Z,12.30
2022-09-21T04:11:33.765Z,12.30
2022-09-21T04:14:01.563Z,12.30
2022-09-21T04:16:28.985Z,12.20
2022-09-21T04:18:56.356Z,12.20
2022-09-21T04:21:23.646Z,12.10
2022-09-21T04:23:51.680Z,12.00
2022-09-21T04:26:28.687Z,12.00
2022-09-21T04:28:56.246Z,11.90
2022-09-21T04:31:24.076Z,11.80
2022-09-21T04:33:52.183Z,11.70
2022-09-21T04:36:20.242Z,11.70
2022-09-21T04:38:48.005Z,11.60
2022-09-21T04:41:15.681Z,11.50
2022-09-21T04:43:43.942Z,11.50
2022-09-21T04:46:15.508Z,11.40
2022-09-21T04:48:43.278Z,11.30
2022-09-21T04:51:10.801Z,11.30
2022-09-21T04:53:38.914Z,11.20
2022-09-21T04:56:06.926Z,11.10
2022-09-21T04:58:34.373Z,11.20
2022-09-21T05:01:01.965Z,11.10
2022-09-21T05:03:29.352Z,11.00
2022-09-21T05:05:57.193Z,11.00
2022-09-21T05:08:44.268Z,10.90
2022-09-21T05:11:13.176Z,10.80
2022-09-21T05:13:40.692Z,10.80
2022-09-21T05:16:08.179Z,10.70
2022-09-21T05:18:35.967Z,10.70
2022-09-21T05:21:04.184Z,10.60
2022-09-21T05:23:31.960Z,10.60
2022-09-21T05:25:59.728Z,10.60
2022-09-21T05:28:27.238Z,10.50
2022-09-21T05:31:16.670Z,10.50
2022-09-21T05:33:50.707Z,10.40
2022-09-21T05:36:36.578Z,10.40
2022-09-21T05:39:04.054Z,10.30
2022-09-21T05:41:31.501Z,10.30
2022-09-21T05:43:59.201Z,10.20
2022-09-21T05:46:52.689Z,10.20
2022-09-21T05:49:43.048Z,10.20
2022-09-21T05:52:23.848Z,10.10
2022-09-21T05:54:51.295Z,10.10
2022-09-21T05:57:21.418Z,10.00
2022-09-21T05:59:51.617Z,10.00
2022-09-21T06:02:34.425Z,10.00
2022-09-21T06:05:02.574Z,9.90
2022-09-21T06:07:29.997Z,9.90
2022-09-21T06:09:57.347Z,9.90
2022-09-21T06:12:24.642Z,9.90
2022-09-21T06:14:51.972Z,9.80
2022-09-21T06:17:19.372Z,9.80
2022-09-21T06:19:46.736Z,9.80
2022-09-21T06:22:14.067Z,9.80
2022-09-21T06:24:41.522Z,9.80
2022-09-21T06:27:08.852Z,9.80
2022-09-21T06:29:36.359Z,11.00
2022-09-21T06:32:04.338Z,9.90
2022-09-21T06:34:31.797Z,9.90
2022-09-21T06:36:59.099Z,9.90
2022-09-21T06:39:26.635Z,9.90
2022-09-21T06:41:53.985Z,9.90
2022-09-21T06:44:23.105Z,10.00
2022-09-21T06:46:50.415Z,10.00
2022-09-21T06:49:17.734Z,10.00
2022-09-21T06:51:45.288Z,10.00
2022-09-21T06:54:12.677Z,10.00
2022-09-21T06:56:40.199Z,10.00
2022-09-21T06:59:08.422Z,10.10
2022-09-21T07:01:35.995Z,10.10
2022-09-21T07:04:03.710Z,10.10
2022-09-21T07:06:31.136Z,10.20
2022-09-21T07:11:46.644Z,10.20
2022-09-21T07:14:15.007Z,10.30
2022-09-21T07:16:43.415Z,10.30
2022-09-21T07:19:11.689Z,10.40
2022-09-21T07:21:39.721Z,10.50
2022-09-21T07:24:11.683Z,10.50
2022-09-21T07:26:39.927Z,10.60
2022-09-21T07:29:07.418Z,10.60
2022-09-21T07:31:35.274Z,10.70
2022-09-21T07:34:02.746Z,10.80
2022-09-21T07:36:30.028Z,10.80
2022-09-21T07:38:57.479Z,10.90
2022-09-21T07:41:25.295Z,11.10
2022-09-21T07:43:53.252Z,11.20
2022-09-21T07:46:20.757Z,11.20
2022-09-21T07:48:48.246Z,11.50
2022-09-21T07:51:16.021Z,11.60
2022-09-21T07:53:46.912Z,11.70
2022-09-21T07:56:17.624Z,11.80
2022-09-21T07:59:03.709Z,11.90
2022-09-21T08:01:31.500Z,12.10
2022-09-21T08:03:59.213Z,12.20
2022-09-21T08:06:27.656Z,12.30
2022-09-21T08:08:57.760Z,12.40
2022-09-21T08:11:26.311Z,12.50
2022-09-21T08:13:55.113Z,12.60
2022-09-21T08:16:22.677Z,12.70
2022-09-21T08:18:51.500Z,12.80
2022-09-21T08:21:20.350Z,12.90
2022-09-21T08:23:48.952Z,13.00
2022-09-21T08:26:19.111Z,13.20
2022-09-21T08:28:50.079Z,13.30
2022-09-21T08:31:19.653Z,13.50
2022-09-21T08:33:47.890Z,13.60
2022-09-21T08:36:15.396Z,13.70
2022-09-21T08:38:42.777Z,13.80
2022-09-21T08:41:14.662Z,13.90
2022-09-21T08:43:43.558Z,14.00
2022-09-21T08:46:13.235Z,14.10
2022-09-21T08:48:46.933Z,14.20
2022-09-21T08:51:17.085Z,14.30
2022-09-21T08:53:46.516Z,14.30
2022-09-21T08:56:15.023Z,14.40
2022-09-21T08:58:43.537Z,14.40
2022-09-21T09:01:19.938Z,14.50
2022-09-21T09:03:50.455Z,14.50
2022-09-21T09:06:24.681Z,14.60
2022-09-21T09:09:23.489Z,14.70
2022-09-21T09:12:08.746Z,14.70
2022-09-21T09:14:44.293Z,14.70
2022-09-21T09:17:11.710Z,14.70
2022-09-21T09:19:41.847Z,14.80
2022-09-21T09:22:11.180Z,14.80
2022-09-21T09:24:49.980Z,14.80
2022-09-21T09:27:49.680Z,14.80
2022-09-21T09:30:19.859Z,14.90
2022-09-21T09:32:53.459Z,15.00
2022-09-21T09:35:39.271Z,15.10
2022-09-21T09:38:14.562Z,15.10
2022-09-21T09:41:00.799Z,15.30
2022-09-21T09:43:28.118Z,15.40
2022-09-21T09:46:12.897Z,15.50
2022-09-21T09:48:59.511Z,15.60
2022-09-21T09:51:26.959Z,15.70
2022-09-21T09:53:57.825Z,15.90
2022-09-21T09:56:25.580Z,16.00
2022-09-21T09:58:57.423Z,16.20
2022-09-21T10:01:40.687Z,16.30
2022-09-21T10:04:14.502Z,16.40
2022-09-21T10:06:46.098Z,16.10
2022-09-21T10:09:29.041Z,16.60
2022-09-21T10:11:58.933Z,16.70
2022-09-21T10:14:28.080Z,16.80
2022-09-21T10:16:56.353Z,17.00
2022-09-21T10:19:25.613Z,17.00
2022-09-21T10:22:00.159Z,17.00
2022-09-21T10:24:30.536Z,17.10
2022-09-21T10:27:18.125Z,17.10
2022-09-21T10:29:46.268Z,17.10
2022-09-21T10:32:14.869Z,17.20
2022-09-21T10:35:01.286Z,17.30
2022-09-21T10:37:30.256Z,17.40
2022-09-21T10:39:57.716Z,17.40
2022-09-21T10:42:25.392Z,17.40
2022-09-21T10:45:03.748Z,17.50
2022-09-21T10:47:31.153Z,17.60
2022-09-21T10:50:01.255Z,17.70
2022-09-21T10:52:34.284Z,17.60
2022-09-21T10:55:01.759Z,17.70
2022-09-21T10:57:29.962Z,17.70
2022-09-21T10:59:57.405Z,17.70
2022-09-21T11:02:26.572Z,17.70
2022-09-21T11:04:57.222Z,17.80
2022-09-21T11:07:37.113Z,17.80
2022-09-21T11:10:13.269Z,17.90
2022-09-21T11:12:45.499Z,17.90
2022-09-21T11:15:15.833Z,18.10
2022-09-21T11:17:49.589Z,18.20
2022-09-21T11:20:20.769Z,18.20
2022-09-21T11:23:04.220Z,18.30
2022-09-21T11:25:50.750Z,18.40
2022-09-21T11:28:22.234Z,18.40
2022-09-21T11:30:57.562Z,18.40
2022-09-21T11:33:27.976Z,18.40
2022-09-21T11:36:13.647Z,18.40
2022-09-21T11:38:44.113Z,18.50
2022-09-21T11:41:11.442Z,18.60
2022-09-21T11:43:41.876Z,18.70
2022-09-21T11:46:21.623Z,18.70
2022-09-21T11:49:04.192Z,18.80
2022-09-21T11:51:40.515Z,18.90
2022-09-21T11:54:35.341Z,18.90
2022-09-21T11:57:09.445Z,19.00
2022-09-21T11:59:46.283Z,19.00
2022-09-21T12:02:19.961Z,19.00
2022-09-21T12:05:07.328Z,19.00
2022-09-21T12:07:50.130Z,19.00
2022-09-21T12:10:24.434Z,19.00
2022-09-21T12:13:00.736Z,19.10
2022-09-21T12:15:34.878Z,19.20
2022-09-21T12:18:21.438Z,19.50
2022-09-21T12:20:55.808Z,19.70
2022-09-21T12:23:26.810Z,19.90
2022-09-21T12:25:57.240Z,20.20
2022-09-21T12:28:27.563Z,20.60
2022-09-21T12:31:00.572Z,20.90
2022-09-21T12:33:34.239Z,21.20
2022-09-21T12:36:11.017Z,21.50
2022-09-21T12:38:44.436Z,21.60
2022-09-21T12:41:17.756Z,21.60
2022-09-21T12:44:01.453Z,21.60
2022-09-21T12:46:32.043Z,21.30
2022-09-21T12:49:00.500Z,21.10
2022-09-21T12:51:32.742Z,21.00
2022-09-21T12:54:01.444Z,20.80
2022-09-21T12:56:45.231Z,20.80
2022-09-21T12:59:30.656Z,20.90
2022-09-21T13:02:12.392Z,21.00
2022-09-21T13:04:50.384Z,21.10
2022-09-21T13:07:23.639Z,21.20
2022-09-21T13:09:51.266Z,21.20
2022-09-21T13:12:27.973Z,21.40
2022-09-21T13:14:59.371Z,21.70
2022-09-21T13:17:29.589Z,22.00
2022-09-21T13:19:59.711Z,22.10
2022-09-21T13:22:31.142Z,22.00
2022-09-21T13:25:01.472Z,22.00
2022-09-21T13:27:47.363Z,21.80
2022-09-21T13:30:43.977Z,21.80
2022-09-21T13:33:29.880Z,22.00
2022-09-21T13:35:59.539Z,22.20
2022-09-21T13:38:28.706Z,22.10
2022-09-21T13:41:00.827Z,22.00
2022-09-21T13:43:48.089Z,21.90
2022-09-21T13:46:34.184Z,21.80
2022-09-21T13:49:10.640Z,21.80
2022-09-21T13:51:51.789Z,21.70
2022-09-21T13:54:21.991Z,21.60
2022-09-21T13:57:09.051Z,21.50
2022-09-21T13:59:39.058Z,21.40
2022-09-21T14:02:20.297Z,21.40
2022-09-21T14:04:49.032Z,21.30
2022-09-21T14:07:17.226Z,21.30
2022-09-21T14:09:59.234Z,21.40
2022-09-21T14:12:28.735Z,21.40
2022-09-21T14:15:16.302Z,21.40
2022-09-21T14:17:44.072Z,21.40
2022-09-21T14:20:31.965Z,21.40
2022-09-21T14:23:11.594Z,21.40
2022-09-21T14:25:53.295Z,21.40
2022-09-21T14:28:27.503Z,21.40
2022-09-21T14:30:58.193Z,21.40
2022-09-21T14:33:46.418Z,21.30
2022-09-21T14:36:16.691Z,21.20
2022-09-21T14:38:54.470Z,21.00
2022-09-21T14:41:23.842Z,20.90
2022-09-21T14:43:53.774Z,20.70
2022-09-21T14:46:28.247Z,20.60
2022-09-21T14:49:04.887Z,20.60
2022-09-21T14:51:36.575Z,20.50
2022-09-21T14:54:22.778Z,20.50
2022-09-21T14:56:55.347Z,20.40
2022-09-21T14:59:22.666Z,20.20
2022-09-21T15:01:57.002Z,20.10
2022-09-21T15:04:24.612Z,20.00
2022-09-21T15:07:22.584Z,19.90
2022-09-21T15:10:11.461Z,19.90
2022-09-21T15:12:42.537Z,20.00
2022-09-21T15:15:22.170Z,20.00
2022-09-21T15:17:59.329Z,20.10
2022-09-21T15:20:28.004Z,20.10
2022-09-21T15:22:57.045Z,20.20
2022-09-21T15:25:27.924Z,20.20
2022-09-21T15:27:55.411Z,20.10
2022-09-21T15:30:28.711Z,20.10
2022-09-21T15:33:02.414Z,20.10
2022-09-21T15:35:33.574Z,20.00
2022-09-21T15:38:01.376Z,19.90
2022-09-21T15:40:30.751Z,19.80
2022-09-21T15:43:03.842Z,19.60
2022-09-21T15:45:46.519Z,19.60
2022-09-21T15:48:14.350Z,19.50
2022-09-21T15:50:43.163Z,19.30
2022-09-21T15:53:31.113Z,19.30
2022-09-21T15:56:01.054Z,19.30
2022-09-21T15:58:35.136Z,19.30
2022-09-21T16:01:05.089Z,19.30
2022-09-21T16:03:32.665Z,19.30
2022-09-21T16:06:16.918Z,19.30
2022-09-21T16:08:44.439Z,19.40
2022-09-21T16:11:27.091Z,19.40
2022-09-21T16:14:32.199Z,19.40
2022-09-21T16:17:11.870Z,19.30
2022-09-21T16:19:43.017Z,19.30
2022-09-21T16:22:14.602Z,19.30
2022-09-21T16:24:55.479Z,19.30
2022-09-21T16:27:26.967Z,19.20
2022-09-21T16:29:55.432Z,19.20
2022-09-21T16:32:26.412Z,19.10
2022-09-21T16:35:09.784Z,19.10
2022-09-21T16:37:37.588Z,19.00
2022-09-21T16:40:05.136Z,19.00
2022-09-21T16:42:33.480Z,18.90
2022-09-21T16:45:00.969Z,18.80
2022-09-21T16:47:28.839Z,18.70
2022-09-21T16:50:00.337Z,18.60
2022-09-21T16:52:28.564Z,18.60
2022-09-21T16:54:56.732Z,18.50
2022-09-21T16:57:24.592Z,18.50
2022-09-21T16:59:51.963Z,18.40
2022-09-21T17:02:19.427Z,18.40
2022-09-21T17:04:48.024Z,18.30
2022-09-21T17:07:16.898Z,18.30
2022-09-21T17:09:46.403Z,18.30
2022-09-21T17:12:15.010Z,18.20
2022-09-21T17:14:46.711Z,18.20
2022-09-21T17:17:17.666Z,18.20
2022-09-21T17:19:46.588Z,18.10
2022-09-21T17:22:19.889Z,18.10
2022-09-21T17:24:51.387Z,18.00
2022-09-21T17:27:21.344Z,18.00
2022-09-21T17:29:49.915Z,17.90
2022-09-21T17:32:21.805Z,17.90
2022-09-21T17:34:54.654Z,17.90
2022-09-21T17:37:22.045Z,17.80
2022-09-21T17:39:49.946Z,17.80
2022-09-21T17:42:21.844Z,17.70
2022-09-21T17:44:59.618Z,17.70
2022-09-21T17:47:32.621Z,17.60
2022-09-21T17:50:08.160Z,17.50
2022-09-21T17:52:54.111Z,17.40
2022-09-21T17:55:21.647Z,17.40
2022-09-21T17:57:52.814Z,17.30
2022-09-21T18:00:22.234Z,17.20
2022-09-21T18:02:49.882Z,17.20
2022-09-21T18:05:27.458Z,17.20
2022-09-21T18:07:55.033Z,17.10
2022-09-21T18:10:23.485Z,17.10
2022-09-21T18:13:20.260Z,17.00
2022-09-21T18:16:04.579Z,17.00
2022-09-21T18:18:38.212Z,16.90
2022-09-21T18:21:09.894Z,16.80
2022-09-21T18:23:41.183Z,16.80
2022-09-21T18:26:13.408Z,16.70
2022-09-21T18:28:46.499Z,16.60
2022-09-21T18:31:32.750Z,16.50
2022-09-21T18:34:00.189Z,16.40
2022-09-21T18:36:31.669Z,16.30
2022-09-21T18:39:05.076Z,16.20
2022-09-21T18:41:36.361Z,16.10
2022-09-21T18:44:09.131Z,15.90
2022-09-21T18:46:39.753Z,15.80
2022-09-21T18:49:16.774Z,15.70
2022-09-21T18:51:44.149Z,15.50
2022-09-21T18:54:21.889Z,15.40
2022-09-21T18:56:49.720Z,15.30
2022-09-21T18:59:17.284Z,15.30
2022-09-21T19:01:46.971Z,15.20
2022-09-21T19:04:17.061Z,15.10
2022-09-21T19:06:54.762Z,15.00
2022-09-21T19:09:31.247Z,14.90
2022-09-21T19:12:02.788Z,14.90
2022-09-21T19:14:43.609Z,14.90
2022-09-21T19:17:29.800Z,14.80
2022-09-21T19:20:15.514Z,14.80
2022-09-21T19:22:52.031Z,14.80
2022-09-21T19:25:34.747Z,14.80
2022-09-21T19:28:10.097Z,14.80
2022-09-21T19:30:38.638Z,14.80
2022-09-21T19:33:32.338Z,14.70
2022-09-21T19:36:02.123Z,14.70
2022-09-21T19:38:30.031Z,14.70
2022-09-21T19:41:06.713Z,14.60
2022-09-21T19:43:36.818Z,14.60
2022-09-21T19:46:10.011Z,14.50
2022-09-21T19:48:47.582Z,14.50
2022-09-21T19:51:14.892Z,14.50
2022-09-21T19:54:02.201Z,14.40
2022-09-21T19:57:05.667Z,14.40
2022-09-21T19:59:46.145Z,14.40
2022-09-21T20:02:28.608Z,14.30
2022-09-21T20:04:57.333Z,14.30
2022-09-21T20:07:34.116Z,14.20
2022-09-21T20:10:01.652Z,14.20
2022-09-21T20:12:33.960Z,14.20
2022-09-21T20:15:21.680Z,14.10
2022-09-21T20:17:51.223Z,14.10
2022-09-21T20:20:21.129Z,14.00
2022-09-21T20:22:48.949Z,14.00
2022-09-21T20:25:20.603Z,13.90
2022-09-21T20:27:52.750Z,13.80
2022-09-21T20:30:22.271Z,13.80
2022-09-21T20:32:52.321Z,13.80
2022-09-21T20:35:24.293Z,13.70
2022-09-21T20:37:58.605Z,13.60
2022-09-21T20:40:29.272Z,13.50
2022-09-21T20:42:58.320Z,13.50
2022-09-21T20:45:25.696Z,13.40
2022-09-21T20:47:53.504Z,13.40
2022-09-21T20:50:21.576Z,13.20
2022-09-21T20:52:49.146Z,13.20
2022-09-21T20:55:20.444Z,13.20
2022-09-21T20:57:47.915Z,13.20
2022-09-21T21:00:15.939Z,13.10
2022-09-21T21:02:43.463Z,13.10
2022-09-21T21:05:11.601Z,13.10
2022-09-21T21:07:40.309Z,13.00
2022-09-21T21:10:07.787Z,13.00
2022-09-21T21:12:35.272Z,13.00
2022-09-21T21:15:02.694Z,12.90
2022-09-21T21:17:30.022Z,12.90
2022-09-21T21:19:57.625Z,12.80
2022-09-21T21:22:25.114Z,12.80
2022-09-21T21:24:52.649Z,12.70
2022-09-21T21:27:22.322Z,12.10
2022-09-21T21:29:50.713Z,12.70
2022-09-21T21:32:18.893Z,12.70
2022-09-21T21:34:46.441Z,12.60
2022-09-21T21:37:14.221Z,12.60
2022-09-21T21:39:41.585Z,12.60
2022-09-21T21:42:09.532Z,12.50
2022-09-21T21:44:37.193Z,12.60
2022-09-21T21:47:21.317Z,12.50
2022-09-21T21:49:52.202Z,12.50
2022-09-21T21:52:19.510Z,12.40
2022-09-21T21:54:46.972Z,12.40
2022-09-21T21:57:15.071Z,12.40
2022-09-21T21:59:43.864Z,12.30
2022-09-21T22:02:11.532Z,12.30
2022-09-21T22:04:38.981Z,12.30
2022-09-21T22:07:06.350Z,12.30
2022-09-21T22:09:33.787Z,12.30
2022-09-21T22:12:02.015Z,12.30
2022-09-21T22:14:29.415Z,12.20
2022-09-21T22:16:58.916Z,12.20
2022-09-21T22:19:26.687Z,12.20
2022-09-21T22:21:54.924Z,12.20
2022-09-21T22:24:22.685Z,12.20
2022-09-21T22:26:50.025Z,12.20
2022-09-21T22:29:17.597Z,12.10
2022-09-21T22:31:46.565Z,12.10
2022-09-21T22:34:14.803Z,12.00
2022-09-21T22:36:43.978Z,11.70
2022-09-21T22:39:12.238Z,12.00
2022-09-21T22:41:42.845Z,11.90
2022-09-21T22:44:10.721Z,11.90
2022-09-21T22:46:38.495Z,11.80
2022-09-21T22:49:06.105Z,11.80
2022-09-21T22:51:34.161Z,11.80
2022-09-21T22:54:01.815Z,11.70
2022-09-21T22:56:30.635Z,11.70
2022-09-21T22:58:59.383Z,11.70
2022-09-21T23:01:26.756Z,11.60
2022-09-21T23:03:55.526Z,11.60
2022-09-21T23:06:23.745Z,11.60
2022-09-21T23:08:51.738Z,11.50
2022-09-21T23:11:27.164Z,11.50
2022-09-21T23:13:55.317Z,11.50
2022-09-21T23:16:23.150Z,11.50
2022-09-21T23:18:51.099Z,11.50
2022-09-21T23:21:19.850Z,11.50
2022-09-21T23:23:47.509Z,11.50
2022-09-21T23:26:16.053Z,11.40
2022-09-21T23:28:45.797Z,11.40
2022-09-21T23:31:14.189Z,11.40
2022-09-21T23:33:49.376Z,11.40
2022-09-21T23:36:17.710Z,11.40
2022-09-21T23:38:45.949Z,11.40
2022-09-21T23:41:15.449Z,11.40
2022-09-21T23:43:43.788Z,11.40
2022-09-21T23:46:12.272Z,11.40
2022-09-21T23:48:40.120Z,11.40
2022-09-21T23:51:07.684Z,11.40
2022-09-21T23:53:35.230Z,11.30
2022-09-21T23:56:03.175Z,11.30
2022-09-21T23:58:30.700Z,11.30
